KELN/ELN METAR and TAF weather

Enter ICAO airport designator
Station Type Date Time Source
KELN METAR 2019/10/18 05:53 UTC NOAA

KELN 180553Z AUTO 32006KT 10SM -RA SCT038 BKN047 OVC095 08/06 A2970 RMK AO2 RAB22 SLP057 P0000 60004 T00830061 10133 20061 53015


Station Type Date Time Source
KELN Decoded METAR 2019/10/18 05:53 UTC NOAA

ELLENSBURG BOWERS FIELD, WA, United States (KELN) 47-02N 120-32W 519M
Oct 18, 2019 - 01:53 AM EDT / 2019.10.18 0553 UTC
Wind: from the NW (320 degrees) at 7 MPH (6 KT):0
Visibility: 10 mile(s):0
Sky conditions: overcast
Weather: light rain
Precipitation last hour: A trace
Temperature: 46.9 F (8.3 C)
Dew Point: 43.0 F (6.1 C)
Relative Humidity: 86%
Pressure (altimeter): 29.7 in. Hg (1005 hPa)
Pressure tendency: 0.04 inches (1.5 hPa) higher than three hours ago
ob: KELN 180553Z AUTO 32006KT 10SM -RA SCT038 BKN047 OVC095 08/06 A2970 RMK AO2 RAB22 SLP057 P0000 60004 T00830061 10133 20061 53015
cycle: 6

Station Type Date Time Source
KELN TAF UTC NOAA

Error!

Example: see airport list